sensor_id;sensor_type;location;lat;lon;timestamp;temperature;humidity
47162;DHT22;32921;53.256;8.198;2024-03-23T00:53:29;4.90;99.90
47162;DHT22;32921;53.256;8.198;2024-03-23T00:55:54;4.90;99.90
47162;DHT22;32921;53.256;8.198;2024-03-23T00:58:20;4.90;99.90
47162;DHT22;32921;53.256;8.198;2024-03-23T01:00:45;4.90;99.90
47162;DHT22;32921;53.256;8.198;2024-03-23T01:03:11;4.90;99.90
47162;DHT22;32921;53.256;8.198;2024-03-23T01:05:36;4.90;99.90
47162;DHT22;32921;53.256;8.198;2024-03-23T01:08:02;4.90;99.90
47162;DHT22;32921;53.256;8.198;2024-03-23T01:10:28;4.90;99.90
47162;DHT22;32921;53.256;8.198;2024-03-23T01:12:53;4.80;99.90
47162;DHT22;32921;53.256;8.198;2024-03-23T01:15:19;4.80;99.90
47162;DHT22;32921;53.256;8.198;2024-03-23T01:17:44;4.80;99.90
47162;DHT22;32921;53.256;8.198;2024-03-23T01:20:10;4.80;99.90
47162;DHT22;32921;53.256;8.198;2024-03-23T01:22:36;4.80;99.90
47162;DHT22;32921;53.256;8.198;2024-03-23T01:25:01;4.90;99.90
47162;DHT22;32921;53.256;8.198;2024-03-23T01:27:27;5.00;99.90
47162;DHT22;32921;53.256;8.198;2024-03-23T01:29:53;4.90;99.90
47162;DHT22;32921;53.256;8.198;2024-03-23T01:32:18;5.00;99.90
47162;DHT22;32921;53.256;8.198;2024-03-23T01:34:44;4.90;99.90
47162;DHT22;32921;53.256;8.198;2024-03-23T01:37:10;4.90;99.90
47162;DHT22;32921;53.256;8.198;2024-03-23T01:39:35;5.00;99.90
47162;DHT22;32921;53.256;8.198;2024-03-23T01:42:01;5.10;99.90
47162;DHT22;32921;53.256;8.198;2024-03-23T01:44:27;5.10;99.90
47162;DHT22;32921;53.256;8.198;2024-03-23T01:46:53;5.00;99.90
47162;DHT22;32921;53.256;8.198;2024-03-23T01:49:19;5.00;99.90
47162;DHT22;32921;53.256;8.198;2024-03-23T01:51:45;5.00;99.90
47162;DHT22;32921;53.256;8.198;2024-03-23T01:54:11;5.00;99.90
47162;DHT22;32921;53.256;8.198;2024-03-23T01:56:36;5.00;99.90
47162;DHT22;32921;53.256;8.198;2024-03-23T01:59:03;4.90;99.90
47162;DHT22;32921;53.256;8.198;2024-03-23T02:01:29;5.00;99.90
47162;DHT22;32921;53.256;8.198;2024-03-23T02:03:54;4.90;99.90
47162;DHT22;32921;53.256;8.198;2024-03-23T02:06:21;4.80;99.90
47162;DHT22;32921;53.256;8.198;2024-03-23T02:08:48;4.80;99.90
47162;DHT22;32921;53.256;8.198;2024-03-23T02:11:14;4.80;99.90
47162;DHT22;32921;53.256;8.198;2024-03-23T02:13:39;4.70;99.90
47162;DHT22;32921;53.256;8.198;2024-03-23T02:16:05;4.80;99.90
47162;DHT22;32921;53.256;8.198;2024-03-23T02:18:32;4.80;99.90
47162;DHT22;32921;53.256;8.198;2024-03-23T02:20:57;4.70;99.90
47162;DHT22;32921;53.256;8.198;2024-03-23T02:23:23;4.90;99.90
47162;DHT22;32921;53.256;8.198;2024-03-23T02:25:50;4.90;99.90
47162;DHT22;32921;53.256;8.198;2024-03-23T02:28:15;4.90;99.90
47162;DHT22;32921;53.256;8.198;2024-03-23T02:30:42;4.90;99.90
47162;DHT22;32921;53.256;8.198;2024-03-23T02:33:08;5.00;99.90
47162;DHT22;32921;53.256;8.198;2024-03-23T02:35:33;5.00;99.90
47162;DHT22;32921;53.256;8.198;2024-03-23T02:37:59;4.80;99.90
47162;DHT22;32921;53.256;8.198;2024-03-23T02:40:25;4.80;99.90
47162;DHT22;32921;53.256;8.198;2024-03-23T02:42:50;4.90;99.90
47162;DHT22;32921;53.256;8.198;2024-03-23T02:45:16;4.80;99.90
47162;DHT22;32921;53.256;8.198;2024-03-23T02:47:42;4.70;99.90
47162;DHT22;32921;53.256;8.198;2024-03-23T02:50:08;4.50;99.90
47162;DHT22;32921;53.256;8.198;2024-03-23T02:52:35;4.40;99.90
47162;DHT22;32921;53.256;8.198;2024-03-23T02:55:00;4.30;99.90
47162;DHT22;32921;53.256;8.198;2024-03-23T02:57:27;4.30;99.90
47162;DHT22;32921;53.256;8.198;2024-03-23T02:59:53;4.30;99.90
47162;DHT22;32921;53.256;8.198;2024-03-23T03:02:19;4.30;99.90
47162;DHT22;32921;53.256;8.198;2024-03-23T03:04:45;4.30;99.90
47162;DHT22;32921;53.256;8.198;2024-03-23T03:07:11;4.20;99.90
47162;DHT22;32921;53.256;8.198;2024-03-23T03:09:36;4.20;99.90
47162;DHT22;32921;53.256;8.198;2024-03-23T03:12:05;4.10;99.90
47162;DHT22;32921;53.256;8.198;2024-03-23T03:14:30;4.20;99.90
47162;DHT22;32921;53.256;8.198;2024-03-23T03:16:56;4.30;99.90
47162;DHT22;32921;53.256;8.198;2024-03-23T03:19:22;4.30;99.90
47162;DHT22;32921;53.256;8.198;2024-03-23T03:21:47;4.30;99.90
47162;DHT22;32921;53.256;8.198;2024-03-23T03:24:13;4.20;99.90
47162;DHT22;32921;53.256;8.198;2024-03-23T03:26:39;4.30;99.90
47162;DHT22;32921;53.256;8.198;2024-03-23T03:29:05;4.30;99.90
47162;DHT22;32921;53.256;8.198;2024-03-23T03:31:30;4.20;99.90
47162;DHT22;32921;53.256;8.198;2024-03-23T03:33:56;4.20;99.90
47162;DHT22;32921;53.256;8.198;2024-03-23T03:36:22;4.10;99.90
47162;DHT22;32921;53.256;8.198;2024-03-23T03:38:47;4.10;99.90
47162;DHT22;32921;53.256;8.198;2024-03-23T03:41:13;4.10;99.90
47162;DHT22;32921;53.256;8.198;2024-03-23T03:43:38;4.00;99.90
47162;DHT22;32921;53.256;8.198;2024-03-23T03:46:04;4.00;99.90
47162;DHT22;32921;53.256;8.198;2024-03-23T03:48:29;4.20;99.90
47162;DHT22;32921;53.256;8.198;2024-03-23T03:50:55;4.20;99.90
47162;DHT22;32921;53.256;8.198;2024-03-23T03:53:21;4.00;99.90
47162;DHT22;32921;53.256;8.198;2024-03-23T03:55:47;3.80;99.90
47162;DHT22;32921;53.256;8.198;2024-03-23T03:58:12;3.70;99.90
47162;DHT22;32921;53.256;8.198;2024-03-23T04:00:38;3.70;99.90
47162;DHT22;32921;53.256;8.198;2024-03-23T04:03:04;3.60;99.90
47162;DHT22;32921;53.256;8.198;2024-03-23T04:05:29;3.40;99.90
47162;DHT22;32921;53.256;8.198;2024-03-23T04:07:55;3.40;99.90
47162;DHT22;32921;53.256;8.198;2024-03-23T04:10:21;3.30;99.90
47162;DHT22;32921;53.256;8.198;2024-03-23T04:12:47;3.30;99.90
47162;DHT22;32921;53.256;8.198;2024-03-23T04:15:13;3.30;99.90
47162;DHT22;32921;53.256;8.198;2024-03-23T04:17:39;3.40;99.90
47162;DHT22;32921;53.256;8.198;2024-03-23T04:20:08;3.40;99.90
47162;DHT22;32921;53.256;8.198;2024-03-23T04:22:37;3.60;99.90
47162;DHT22;32921;53.256;8.198;2024-03-23T04:25:03;3.70;99.90
47162;DHT22;32921;53.256;8.198;2024-03-23T04:27:35;3.80;99.90
47162;DHT22;32921;53.256;8.198;2024-03-23T04:30:00;3.80;99.90
47162;DHT22;32921;53.256;8.198;2024-03-23T04:32:27;3.80;99.90
47162;DHT22;32921;53.256;8.198;2024-03-23T04:34:53;3.80;99.90
47162;DHT22;32921;53.256;8.198;2024-03-23T04:37:20;3.80;99.90
47162;DHT22;32921;53.256;8.198;2024-03-23T04:39:46;3.70;99.90
47162;DHT22;32921;53.256;8.198;2024-03-23T04:42:11;3.70;99.90
47162;DHT22;32921;53.256;8.198;2024-03-23T04:44:37;3.60;99.90
47162;DHT22;32921;53.256;8.198;2024-03-23T04:47:03;3.60;99.90
47162;DHT22;32921;53.256;8.198;2024-03-23T04:49:30;3.60;99.90
47162;DHT22;32921;53.256;8.198;2024-03-23T04:51:56;3.60;99.90
47162;DHT22;32921;53.256;8.198;2024-03-23T04:54:22;3.60;99.90
47162;DHT22;32921;53.256;8.198;2024-03-23T04:56:47;3.50;99.90
47162;DHT22;32921;53.256;8.198;2024-03-23T04:59:13;3.60;99.90
47162;DHT22;32921;53.256;8.198;2024-03-23T05:01:38;3.60;99.90
47162;DHT22;32921;53.256;8.198;2024-03-23T05:04:07;3.50;99.90
47162;DHT22;32921;53.256;8.198;2024-03-23T05:06:33;3.50;99.90
47162;DHT22;32921;53.256;8.198;2024-03-23T05:09:00;3.50;99.90
47162;DHT22;32921;53.256;8.198;2024-03-23T05:11:26;3.50;99.90
47162;DHT22;32921;53.256;8.198;2024-03-23T05:13:52;3.50;99.90
47162;DHT22;32921;53.256;8.198;2024-03-23T05:16:18;3.50;99.90
47162;DHT22;32921;53.256;8.198;2024-03-23T05:18:43;3.60;99.90
47162;DHT22;32921;53.256;8.198;2024-03-23T05:21:09;3.60;99.90
47162;DHT22;32921;53.256;8.198;2024-03-23T05:23:34;3.60;99.90
47162;DHT22;32921;53.256;8.198;2024-03-23T05:26:00;3.50;99.90
47162;DHT22;32921;53.256;8.198;2024-03-23T05:28:26;3.40;99.90
47162;DHT22;32921;53.256;8.198;2024-03-23T05:30:55;3.50;99.90
47162;DHT22;32921;53.256;8.198;2024-03-23T05:33:22;3.50;99.90
47162;DHT22;32921;53.256;8.198;2024-03-23T05:35:56;3.40;99.90
47162;DHT22;32921;53.256;8.198;2024-03-23T05:38:22;3.40;99.90
47162;DHT22;32921;53.256;8.198;2024-03-23T05:40:55;3.40;99.90
47162;DHT22;32921;53.256;8.198;2024-03-23T05:43:21;3.40;99.90
47162;DHT22;32921;53.256;8.198;2024-03-23T05:45:56;3.40;99.90
47162;DHT22;32921;53.256;8.198;2024-03-23T05:48:22;3.40;99.90
47162;DHT22;32921;53.256;8.198;2024-03-23T05:50:48;3.40;99.90
47162;DHT22;32921;53.256;8.198;2024-03-23T05:53:17;3.40;99.90
47162;DHT22;32921;53.256;8.198;2024-03-23T05:55:43;3.50;99.90
47162;DHT22;32921;53.256;8.198;2024-03-23T05:58:09;3.50;99.90
47162;DHT22;32921;53.256;8.198;2024-03-23T06:00:35;3.60;99.90
47162;DHT22;32921;53.256;8.198;2024-03-23T06:03:01;3.50;99.90
47162;DHT22;32921;53.256;8.198;2024-03-23T06:05:27;3.60;99.90
47162;DHT22;32921;53.256;8.198;2024-03-23T06:07:52;3.70;99.90
47162;DHT22;32921;53.256;8.198;2024-03-23T06:10:18;3.70;99.90
47162;DHT22;32921;53.256;8.198;2024-03-23T06:12:46;3.80;99.90
47162;DHT22;32921;53.256;8.198;2024-03-23T06:15:12;3.90;99.90
47162;DHT22;32921;53.256;8.198;2024-03-23T06:17:38;3.90;99.90
47162;DHT22;32921;53.256;8.198;2024-03-23T06:20:04;4.00;99.90
47162;DHT22;32921;53.256;8.198;2024-03-23T06:22:32;4.10;99.90
47162;DHT22;32921;53.256;8.198;2024-03-23T06:24:57;4.20;99.90
47162;DHT22;32921;53.256;8.198;2024-03-23T06:27:23;4.30;99.90
47162;DHT22;32921;53.256;8.198;2024-03-23T06:29:49;4.30;99.90
47162;DHT22;32921;53.256;8.198;2024-03-23T06:32:14;4.40;99.90
47162;DHT22;32921;53.256;8.198;2024-03-23T06:34:43;4.50;99.90
47162;DHT22;32921;53.256;8.198;2024-03-23T06:37:09;4.50;99.90
47162;DHT22;32921;53.256;8.198;2024-03-23T06:39:37;4.60;99.90
47162;DHT22;32921;53.256;8.198;2024-03-23T06:42:03;4.70;99.90
47162;DHT22;32921;53.256;8.198;2024-03-23T06:44:29;4.80;99.90
47162;DHT22;32921;53.256;8.198;2024-03-23T06:46:55;4.80;99.90
47162;DHT22;32921;53.256;8.198;2024-03-23T06:49:22;5.00;99.90
47162;DHT22;32921;53.256;8.198;2024-03-23T06:51:47;5.10;99.90
47162;DHT22;32921;53.256;8.198;2024-03-23T06:54:13;5.20;99.90
47162;DHT22;32921;53.256;8.198;2024-03-23T06:56:39;5.30;99.90
47162;DHT22;32921;53.256;8.198;2024-03-23T06:59:04;5.40;99.90
47162;DHT22;32921;53.256;8.198;2024-03-23T07:01:30;5.30;99.90
47162;DHT22;32921;53.256;8.198;2024-03-23T07:03:56;5.30;99.90
47162;DHT22;32921;53.256;8.198;2024-03-23T07:06:21;5.30;99.90
47162;DHT22;32921;53.256;8.198;2024-03-23T07:08:47;5.40;99.90
47162;DHT22;32921;53.256;8.198;2024-03-23T07:11:21;5.40;99.90
47162;DHT22;32921;53.256;8.198;2024-03-23T07:13:50;5.50;99.90
47162;DHT22;32921;53.256;8.198;2024-03-23T07:16:16;5.50;99.90
47162;DHT22;32921;53.256;8.198;2024-03-23T07:18:42;5.60;99.90
47162;DHT22;32921;53.256;8.198;2024-03-23T07:21:07;5.70;99.90
47162;DHT22;32921;53.256;8.198;2024-03-23T07:23:33;5.70;99.90
47162;DHT22;32921;53.256;8.198;2024-03-23T07:26:01;5.80;99.90
47162;DHT22;32921;53.256;8.198;2024-03-23T07:28:27;5.80;99.90
47162;DHT22;32921;53.256;8.198;2024-03-23T07:33:29;5.90;99.90
47162;DHT22;32921;53.256;8.198;2024-03-23T07:35:54;6.10;99.90
47162;DHT22;32921;53.256;8.198;2024-03-23T07:38:20;6.20;99.90
47162;DHT22;32921;53.256;8.198;2024-03-23T07:40:46;6.30;99.90
47162;DHT22;32921;53.256;8.198;2024-03-23T07:43:11;6.40;99.90
47162;DHT22;32921;53.256;8.198;2024-03-23T07:45:37;6.70;99.90
47162;DHT22;32921;53.256;8.198;2024-03-23T07:48:04;7.00;99.90
47162;DHT22;32921;53.256;8.198;2024-03-23T07:50:29;7.30;99.90
47162;DHT22;32921;53.256;8.198;2024-03-23T07:52:55;7.70;99.90
47162;DHT22;32921;53.256;8.198;2024-03-23T07:55:20;8.00;99.90
47162;DHT22;32921;53.256;8.198;2024-03-23T07:57:46;8.40;99.90
47162;DHT22;32921;53.256;8.198;2024-03-23T08:00:14;8.90;99.90
47162;DHT22;32921;53.256;8.198;2024-03-23T08:02:39;9.00;99.90
47162;DHT22;32921;53.256;8.198;2024-03-23T08:05:05;9.20;99.90
47162;DHT22;32921;53.256;8.198;2024-03-23T08:07:31;9.20;99.90
47162;DHT22;32921;53.256;8.198;2024-03-23T08:09:56;9.30;99.90
47162;DHT22;32921;53.256;8.198;2024-03-23T08:12:24;9.30;99.90
47162;DHT22;32921;53.256;8.198;2024-03-23T08:14:49;9.50;99.90
47162;DHT22;32921;53.256;8.198;2024-03-23T08:17:15;9.80;99.90
47162;DHT22;32921;53.256;8.198;2024-03-23T08:19:41;9.70;99.90
47162;DHT22;32921;53.256;8.198;2024-03-23T08:22:06;10.10;99.90
47162;DHT22;32921;53.256;8.198;2024-03-23T08:24:32;9.80;99.90
47162;DHT22;32921;53.256;8.198;2024-03-23T08:26:57;9.40;99.90
47162;DHT22;32921;53.256;8.198;2024-03-23T08:29:23;9.50;99.90
47162;DHT22;32921;53.256;8.198;2024-03-23T08:31:48;9.20;99.90
47162;DHT22;32921;53.256;8.198;2024-03-23T08:34:14;9.30;99.90
47162;DHT22;32921;53.256;8.198;2024-03-23T08:36:40;9.60;99.90
47162;DHT22;32921;53.256;8.198;2024-03-23T08:39:05;9.30;99.90
47162;DHT22;32921;53.256;8.198;2024-03-23T08:41:31;9.00;99.90
47162;DHT22;32921;53.256;8.198;2024-03-23T08:43:56;8.80;99.90
47162;DHT22;32921;53.256;8.198;2024-03-23T08:46:22;9.00;99.90
47162;DHT22;32921;53.256;8.198;2024-03-23T08:48:47;9.50;99.90
47162;DHT22;32921;53.256;8.198;2024-03-23T08:51:16;9.50;99.90
47162;DHT22;32921;53.256;8.198;2024-03-23T08:53:42;9.50;99.90
47162;DHT22;32921;53.256;8.198;2024-03-23T08:56:09;9.40;99.90
47162;DHT22;32921;53.256;8.198;2024-03-23T08:58:36;9.10;99.90
47162;DHT22;32921;53.256;8.198;2024-03-23T09:01:09;8.70;99.90
47162;DHT22;32921;53.256;8.198;2024-03-23T09:03:35;8.60;99.90
47162;DHT22;32921;53.256;8.198;2024-03-23T09:06:06;8.80;99.90
47162;DHT22;32921;53.256;8.198;2024-03-23T09:08:32;9.30;99.90
47162;DHT22;32921;53.256;8.198;2024-03-23T09:10:58;9.60;99.90
47162;DHT22;32921;53.256;8.198;2024-03-23T09:13:28;9.40;99.90
47162;DHT22;32921;53.256;8.198;2024-03-23T09:15:54;8.90;99.90
47162;DHT22;32921;53.256;8.198;2024-03-23T09:18:22;8.70;99.90
47162;DHT22;32921;53.256;8.198;2024-03-23T09:20:49;8.70;99.90
47162;DHT22;32921;53.256;8.198;2024-03-23T09:23:14;8.70;99.90
47162;DHT22;32921;53.256;8.198;2024-03-23T09:25:40;8.70;99.90
47162;DHT22;32921;53.256;8.198;2024-03-23T09:28:06;8.80;99.90
47162;DHT22;32921;53.256;8.198;2024-03-23T09:30:34;9.10;99.90
47162;DHT22;32921;53.256;8.198;2024-03-23T09:33:00;9.50;99.90
47162;DHT22;32921;53.256;8.198;2024-03-23T09:35:27;9.60;99.90
47162;DHT22;32921;53.256;8.198;2024-03-23T09:37:52;9.30;99.90
47162;DHT22;32921;53.256;8.198;2024-03-23T09:40:18;9.10;99.90
47162;DHT22;32921;53.256;8.198;2024-03-23T09:42:50;9.00;99.90
47162;DHT22;32921;53.256;8.198;2024-03-23T09:45:26;9.30;99.90
47162;DHT22;32921;53.256;8.198;2024-03-23T09:47:52;9.70;99.90
47162;DHT22;32921;53.256;8.198;2024-03-23T09:50:18;9.80;99.90
47162;DHT22;32921;53.256;8.198;2024-03-23T09:52:46;10.00;99.90
47162;DHT22;32921;53.256;8.198;2024-03-23T09:55:12;9.60;97.20
47162;DHT22;32921;53.256;8.198;2024-03-23T09:57:39;9.30;96.20
47162;DHT22;32921;53.256;8.198;2024-03-23T10:00:05;9.60;94.70
47162;DHT22;32921;53.256;8.198;2024-03-23T10:02:32;10.20;96.00
47162;DHT22;32921;53.256;8.198;2024-03-23T10:04:58;10.80;92.90
47162;DHT22;32921;53.256;8.198;2024-03-23T10:07:25;10.70;80.50
47162;DHT22;32921;53.256;8.198;2024-03-23T10:09:53;10.90;83.30
47162;DHT22;32921;53.256;8.198;2024-03-23T10:12:19;10.90;77.10
47162;DHT22;32921;53.256;8.198;2024-03-23T10:14:46;11.20;74.00
47162;DHT22;32921;53.256;8.198;2024-03-23T10:17:21;11.40;70.10
47162;DHT22;32921;53.256;8.198;2024-03-23T10:19:51;10.70;67.70
47162;DHT22;32921;53.256;8.198;2024-03-23T10:22:21;10.30;69.20
47162;DHT22;32921;53.256;8.198;2024-03-23T10:24:47;10.30;69.80
47162;DHT22;32921;53.256;8.198;2024-03-23T10:27:17;10.30;67.10
47162;DHT22;32921;53.256;8.198;2024-03-23T10:29:44;10.00;70.00
47162;DHT22;32921;53.256;8.198;2024-03-23T10:32:14;9.40;76.40
47162;DHT22;32921;53.256;8.198;2024-03-23T10:34:41;8.40;91.00
47162;DHT22;32921;53.256;8.198;2024-03-23T10:37:07;7.70;99.90
47162;DHT22;32921;53.256;8.198;2024-03-23T10:39:40;7.30;99.90
47162;DHT22;32921;53.256;8.198;2024-03-23T10:42:09;7.90;99.90
47162;DHT22;32921;53.256;8.198;2024-03-23T10:44:37;8.90;99.90
47162;DHT22;32921;53.256;8.198;2024-03-23T10:47:04;9.30;99.90
47162;DHT22;32921;53.256;8.198;2024-03-23T10:49:34;10.00;99.90
47162;DHT22;32921;53.256;8.198;2024-03-23T10:52:05;10.40;99.90
47162;DHT22;32921;53.256;8.198;2024-03-23T10:54:32;10.10;99.90
47162;DHT22;32921;53.256;8.198;2024-03-23T10:57:09;9.90;99.90
47162;DHT22;32921;53.256;8.198;2024-03-23T10:59:37;10.30;99.90
47162;DHT22;32921;53.256;8.198;2024-03-23T11:02:03;9.80;99.90
47162;DHT22;32921;53.256;8.198;2024-03-23T11:04:36;9.80;99.90
47162;DHT22;32921;53.256;8.198;2024-03-23T11:09:55;10.40;99.90
47162;DHT22;32921;53.256;8.198;2024-03-23T11:14:54;11.50;90.80
47162;DHT22;32921;53.256;8.198;2024-03-23T11:17:21;11.80;82.90
47162;DHT22;32921;53.256;8.198;2024-03-23T11:20:01;11.70;79.60
47162;DHT22;32921;53.256;8.198;2024-03-23T11:22:45;11.80;79.40
47162;DHT22;32921;53.256;8.198;2024-03-23T11:25:19;11.90;72.10
47162;DHT22;32921;53.256;8.198;2024-03-23T11:28:10;12.30;66.40
47162;DHT22;32921;53.256;8.198;2024-03-23T11:30:35;11.10;64.40
47162;DHT22;32921;53.256;8.198;2024-03-23T11:33:03;9.00;72.50
47162;DHT22;32921;53.256;8.198;2024-03-23T11:35:31;7.60;84.60
47162;DHT22;32921;53.256;8.198;2024-03-23T11:38:12;6.50;94.40
47162;DHT22;32921;53.256;8.198;2024-03-23T11:40:39;4.70;99.90
47162;DHT22;32921;53.256;8.198;2024-03-23T11:43:07;3.90;99.90
47162;DHT22;32921;53.256;8.198;2024-03-23T11:45:42;3.80;99.90
47162;DHT22;32921;53.256;8.198;2024-03-23T11:48:15;3.80;99.90
47162;DHT22;32921;53.256;8.198;2024-03-23T11:50:44;4.10;99.90
47162;DHT22;32921;53.256;8.198;2024-03-23T11:55:49;4.60;99.90
47162;DHT22;32921;53.256;8.198;2024-03-23T11:58:20;5.00;99.90
47162;DHT22;32921;53.256;8.198;2024-03-23T12:03:19;5.70;99.90
47162;DHT22;32921;53.256;8.198;2024-03-23T12:05:50;5.90;99.90
47162;DHT22;32921;53.256;8.198;2024-03-23T12:08:45;6.00;99.90
47162;DHT22;32921;53.256;8.198;2024-03-23T12:11:15;6.00;99.90
47162;DHT22;32921;53.256;8.198;2024-03-23T12:13:43;5.90;99.90
47162;DHT22;32921;53.256;8.198;2024-03-23T12:18:37;5.90;99.90
47162;DHT22;32921;53.256;8.198;2024-03-23T12:21:03;7.10;99.90
47162;DHT22;32921;53.256;8.198;2024-03-23T12:23:28;9.50;99.90
47162;DHT22;32921;53.256;8.198;2024-03-23T12:25:54;11.00;99.90
47162;DHT22;32921;53.256;8.198;2024-03-23T12:28:19;12.30;99.90
47162;DHT22;32921;53.256;8.198;2024-03-23T12:30:45;12.50;99.90
47162;DHT22;32921;53.256;8.198;2024-03-23T12:33:11;11.80;99.90
47162;DHT22;32921;53.256;8.198;2024-03-23T12:35:36;10.10;99.90
47162;DHT22;32921;53.256;8.198;2024-03-23T12:38:02;8.30;99.90
47162;DHT22;32921;53.256;8.198;2024-03-23T12:40:28;7.30;99.90
47162;DHT22;32921;53.256;8.198;2024-03-23T12:42:54;6.70;99.90
47162;DHT22;32921;53.256;8.198;2024-03-23T12:45:19;6.40;99.90
47162;DHT22;32921;53.256;8.198;2024-03-23T12:47:45;6.50;99.90
47162;DHT22;32921;53.256;8.198;2024-03-23T12:50:11;6.30;99.90
47162;DHT22;32921;53.256;8.198;2024-03-23T12:52:37;6.10;99.90
47162;DHT22;32921;53.256;8.198;2024-03-23T12:55:04;5.90;99.90
47162;DHT22;32921;53.256;8.198;2024-03-23T12:57:32;5.80;99.90
47162;DHT22;32921;53.256;8.198;2024-03-23T12:59:58;5.80;99.90
47162;DHT22;32921;53.256;8.198;2024-03-23T13:02:24;6.00;99.90
47162;DHT22;32921;53.256;8.198;2024-03-23T13:04:51;6.40;99.90
47162;DHT22;32921;53.256;8.198;2024-03-23T13:07:19;6.90;99.90
47162;DHT22;32921;53.256;8.198;2024-03-23T13:09:45;7.30;99.90
47162;DHT22;32921;53.256;8.198;2024-03-23T13:12:11;8.40;99.90
47162;DHT22;32921;53.256;8.198;2024-03-23T13:14:40;8.40;99.90
47162;DHT22;32921;53.256;8.198;2024-03-23T13:17:07;8.40;99.90
47162;DHT22;32921;53.256;8.198;2024-03-23T13:19:33;9.30;99.90
47162;DHT22;32921;53.256;8.198;2024-03-23T13:21:59;10.30;99.90
47162;DHT22;32921;53.256;8.198;2024-03-23T13:24:27;10.90;99.90
47162;DHT22;32921;53.256;8.198;2024-03-23T13:26:53;11.50;99.90
47162;DHT22;32921;53.256;8.198;2024-03-23T13:29:19;11.60;99.90
47162;DHT22;32921;53.256;8.198;2024-03-23T13:31:49;11.60;99.90
47162;DHT22;32921;53.256;8.198;2024-03-23T13:34:16;11.60;99.90
47162;DHT22;32921;53.256;8.198;2024-03-23T13:36:45;11.40;99.90
47162;DHT22;32921;53.256;8.198;2024-03-23T13:39:11;11.70;99.90
47162;DHT22;32921;53.256;8.198;2024-03-23T13:41:41;12.20;99.90
47162;DHT22;32921;53.256;8.198;2024-03-23T13:44:08;12.40;96.10
47162;DHT22;32921;53.256;8.198;2024-03-23T13:46:35;12.20;90.60
47162;DHT22;32921;53.256;8.198;2024-03-23T13:49:01;11.70;81.30
47162;DHT22;32921;53.256;8.198;2024-03-23T13:51:27;10.70;85.90
47162;DHT22;32921;53.256;8.198;2024-03-23T13:53:53;9.70;88.90
47162;DHT22;32921;53.256;8.198;2024-03-23T13:56:20;9.00;93.80
47162;DHT22;32921;53.256;8.198;2024-03-23T13:58:46;9.20;98.90
47162;DHT22;32921;53.256;8.198;2024-03-23T14:01:15;9.80;99.90
47162;DHT22;32921;53.256;8.198;2024-03-23T14:03:42;9.30;99.90
47162;DHT22;32921;53.256;8.198;2024-03-23T14:06:08;9.00;99.90
47162;DHT22;32921;53.256;8.198;2024-03-23T14:08:38;9.10;99.90
47162;DHT22;32921;53.256;8.198;2024-03-23T14:11:07;9.80;99.90
47162;DHT22;32921;53.256;8.198;2024-03-23T14:13:36;9.70;99.50
47162;DHT22;32921;53.256;8.198;2024-03-23T14:16:02;10.50;95.30
47162;DHT22;32921;53.256;8.198;2024-03-23T14:18:28;10.50;91.60
47162;DHT22;32921;53.256;8.198;2024-03-23T14:21:00;10.40;88.70
47162;DHT22;32921;53.256;8.198;2024-03-23T14:23:27;10.60;79.50
47162;DHT22;32921;53.256;8.198;2024-03-23T14:25:55;10.40;76.10
47162;DHT22;32921;53.256;8.198;2024-03-23T14:28:24;10.90;72.70
47162;DHT22;32921;53.256;8.198;2024-03-23T14:30:51;9.90;70.80
47162;DHT22;32921;53.256;8.198;2024-03-23T14:33:17;9.30;74.50
47162;DHT22;32921;53.256;8.198;2024-03-23T14:35:43;9.10;74.50
47162;DHT22;32921;53.256;8.198;2024-03-23T14:38:09;9.30;77.50
47162;DHT22;32921;53.256;8.198;2024-03-23T14:40:35;9.20;77.10
47162;DHT22;32921;53.256;8.198;2024-03-23T14:43:01;9.90;79.30
47162;DHT22;32921;53.256;8.198;2024-03-23T14:45:26;11.10;79.70
47162;DHT22;32921;53.256;8.198;2024-03-23T14:47:52;11.20;73.70
47162;DHT22;32921;53.256;8.198;2024-03-23T14:50:18;10.40;69.40
47162;DHT22;32921;53.256;8.198;2024-03-23T14:52:44;10.80;69.10
47162;DHT22;32921;53.256;8.198;2024-03-23T14:55:11;12.00;69.70
47162;DHT22;32921;53.256;8.198;2024-03-23T14:57:37;12.20;63.80
47162;DHT22;32921;53.256;8.198;2024-03-23T15:00:07;11.10;64.10
47162;DHT22;32921;53.256;8.198;2024-03-23T15:02:36;10.30;67.20
47162;DHT22;32921;53.256;8.198;2024-03-23T15:05:02;9.90;69.60
47162;DHT22;32921;53.256;8.198;2024-03-23T15:07:30;9.50;72.10
47162;DHT22;32921;53.256;8.198;2024-03-23T15:09:55;9.10;74.00
47162;DHT22;32921;53.256;8.198;2024-03-23T15:12:21;8.70;78.80
47162;DHT22;32921;53.256;8.198;2024-03-23T15:14:47;8.60;81.70
47162;DHT22;32921;53.256;8.198;2024-03-23T15:17:13;8.70;82.00
47162;DHT22;32921;53.256;8.198;2024-03-23T15:19:38;8.50;85.70
47162;DHT22;32921;53.256;8.198;2024-03-23T15:22:04;8.10;92.30
47162;DHT22;32921;53.256;8.198;2024-03-23T15:24:30;7.60;99.70
47162;DHT22;32921;53.256;8.198;2024-03-23T15:26:57;7.50;99.90
47162;DHT22;32921;53.256;8.198;2024-03-23T15:29:22;7.30;99.90
47162;DHT22;32921;53.256;8.198;2024-03-23T15:31:48;7.10;99.90
47162;DHT22;32921;53.256;8.198;2024-03-23T15:34:21;7.30;99.90
47162;DHT22;32921;53.256;8.198;2024-03-23T15:36:49;7.70;99.90
47162;DHT22;32921;53.256;8.198;2024-03-23T15:39:19;7.30;99.90
47162;DHT22;32921;53.256;8.198;2024-03-23T15:41:47;6.90;99.90
47162;DHT22;32921;53.256;8.198;2024-03-23T15:44:13;6.70;99.90
47162;DHT22;32921;53.256;8.198;2024-03-23T15:46:39;7.00;99.90
47162;DHT22;32921;53.256;8.198;2024-03-23T15:49:05;6.90;99.90
47162;DHT22;32921;53.256;8.198;2024-03-23T15:51:31;6.80;99.90
47162;DHT22;32921;53.256;8.198;2024-03-23T15:54:00;7.40;99.90
47162;DHT22;32921;53.256;8.198;2024-03-23T15:56:26;9.10;99.90
47162;DHT22;32921;53.256;8.198;2024-03-23T15:58:54;10.10;99.90
47162;DHT22;32921;53.256;8.198;2024-03-23T16:01:19;10.80;99.90
47162;DHT22;32921;53.256;8.198;2024-03-23T16:03:46;11.20;94.80
47162;DHT22;32921;53.256;8.198;2024-03-23T16:06:11;11.30;90.10
47162;DHT22;32921;53.256;8.198;2024-03-23T16:08:37;11.40;79.40
47162;DHT22;32921;53.256;8.198;2024-03-23T16:11:04;10.90;74.80
47162;DHT22;32921;53.256;8.198;2024-03-23T16:13:31;10.20;73.30
47162;DHT22;32921;53.256;8.198;2024-03-23T16:16:00;9.40;77.40
47162;DHT22;32921;53.256;8.198;2024-03-23T16:18:29;8.80;81.60
47162;DHT22;32921;53.256;8.198;2024-03-23T16:20:56;8.30;86.20
47162;DHT22;32921;53.256;8.198;2024-03-23T16:23:23;8.20;91.10
47162;DHT22;32921;53.256;8.198;2024-03-23T16:25:53;8.00;91.30
47162;DHT22;32921;53.256;8.198;2024-03-23T16:28:26;7.80;92.50
47162;DHT22;32921;53.256;8.198;2024-03-23T16:30:57;7.70;92.60
47162;DHT22;32921;53.256;8.198;2024-03-23T16:33:23;7.70;93.60
47162;DHT22;32921;53.256;8.198;2024-03-23T16:36:02;7.80;92.10
47162;DHT22;32921;53.256;8.198;2024-03-23T16:38:30;7.80;91.70
47162;DHT22;32921;53.256;8.198;2024-03-23T16:41:02;7.80;90.40
47162;DHT22;32921;53.256;8.198;2024-03-23T16:43:28;7.70;88.50
47162;DHT22;32921;53.256;8.198;2024-03-23T16:45:56;7.60;89.50
47162;DHT22;32921;53.256;8.198;2024-03-23T16:48:23;7.50;89.20